sensor_id;sensor_type;location;lat;lon;timestamp;pressure;altitude;pressure_sealevel;temperature;humidity
56671;BME280;42545;50.054;8.306;2023-05-23T00:01:14;99791.97;;;15.87;100.00
56671;BME280;42545;50.054;8.306;2023-05-23T00:03:41;99782.19;;;15.93;100.00
56671;BME280;42545;50.054;8.306;2023-05-23T00:06:08;99784.78;;;15.97;100.00
56671;BME280;42545;50.054;8.306;2023-05-23T00:08:34;99775.94;;;15.96;100.00
56671;BME280;42545;50.054;8.306;2023-05-23T00:11:01;99780.31;;;16.02;100.00
56671;BME280;42545;50.054;8.306;2023-05-23T00:13:27;99772.31;;;16.02;100.00
56671;BME280;42545;50.054;8.306;2023-05-23T00:15:55;99777.66;;;16.00;100.00
56671;BME280;42545;50.054;8.306;2023-05-23T00:18:22;99775.91;;;15.98;100.00
56671;BME280;42545;50.054;8.306;2023-05-23T00:20:49;99776.78;;;15.97;100.00
56671;BME280;42545;50.054;8.306;2023-05-23T00:23:16;99779.50;;;15.93;100.00
56671;BME280;42545;50.054;8.306;2023-05-23T00:25:45;99784.84;;;15.92;100.00
56671;BME280;42545;50.054;8.306;2023-05-23T00:28:17;99783.94;;;15.91;100.00
56671;BME280;42545;50.054;8.306;2023-05-23T00:30:44;99784.84;;;15.92;100.00
56671;BME280;42545;50.054;8.306;2023-05-23T00:33:12;99786.59;;;15.91;100.00
56671;BME280;42545;50.054;8.306;2023-05-23T00:35:39;99785.72;;;15.91;100.00
56671;BME280;42545;50.054;8.306;2023-05-23T00:38:06;99792.81;;;15.92;100.00
56671;BME280;42545;50.054;8.306;2023-05-23T00:40:33;99793.69;;;15.94;100.00
56671;BME280;42545;50.054;8.306;2023-05-23T00:42:59;99794.53;;;15.98;100.00
56671;BME280;42545;50.054;8.306;2023-05-23T00:45:26;99802.53;;;15.98;100.00
56671;BME280;42545;50.054;8.306;2023-05-23T00:47:53;99799.81;;;16.01;100.00
56671;BME280;42545;50.054;8.306;2023-05-23T00:50:21;99805.13;;;16.04;100.00
56671;BME280;42545;50.054;8.306;2023-05-23T00:52:48;99809.56;;;16.05;100.00
56671;BME280;42545;50.054;8.306;2023-05-23T00:55:15;99811.28;;;16.07;100.00
56671;BME280;42545;50.054;8.306;2023-05-23T00:57:42;99820.13;;;16.09;100.00
56671;BME280;42545;50.054;8.306;2023-05-23T01:00:11;99823.69;;;16.10;100.00
56671;BME280;42545;50.054;8.306;2023-05-23T01:02:41;99819.25;;;16.12;100.00
56671;BME280;42545;50.054;8.306;2023-05-23T01:05:09;99829.81;;;16.18;100.00
56671;BME280;42545;50.054;8.306;2023-05-23T01:07:40;99826.22;;;16.22;100.00
56671;BME280;42545;50.054;8.306;2023-05-23T01:10:07;99830.56;;;16.31;100.00
56671;BME280;42545;50.054;8.306;2023-05-23T01:12:43;99823.44;;;16.34;100.00
56671;BME280;42545;50.054;8.306;2023-05-23T01:15:14;99828.72;;;16.38;100.00
56671;BME280;42545;50.054;8.306;2023-05-23T01:17:44;99824.25;;;16.41;100.00
56671;BME280;42545;50.054;8.306;2023-05-23T01:20:20;99820.66;;;16.45;100.00
56671;BME280;42545;50.054;8.306;2023-05-23T01:23:01;99823.31;;;16.47;100.00
56671;BME280;42545;50.054;8.306;2023-05-23T01:25:44;99819.78;;;16.45;100.00
56671;BME280;42545;50.054;8.306;2023-05-23T01:28:16;99818.88;;;16.44;100.00
56671;BME280;42545;50.054;8.306;2023-05-23T01:30:44;99817.97;;;16.48;100.00
56671;BME280;42545;50.054;8.306;2023-05-23T01:33:13;99819.72;;;16.48;100.00
56671;BME280;42545;50.054;8.306;2023-05-23T01:35:41;99824.19;;;16.47;100.00
56671;BME280;42545;50.054;8.306;2023-05-23T01:38:08;99815.31;;;16.47;100.00
56671;BME280;42545;50.054;8.306;2023-05-23T01:40:38;99818.00;;;16.45;100.00
56671;BME280;42545;50.054;8.306;2023-05-23T01:43:05;99819.78;;;16.43;100.00
56671;BME280;42545;50.054;8.306;2023-05-23T01:45:33;99814.47;;;16.43;100.00
56671;BME280;42545;50.054;8.306;2023-05-23T01:48:01;99819.81;;;16.40;100.00
56671;BME280;42545;50.054;8.306;2023-05-23T01:50:29;99812.78;;;16.36;100.00
56671;BME280;42545;50.054;8.306;2023-05-23T01:52:58;99822.53;;;16.36;100.00
56671;BME280;42545;50.054;8.306;2023-05-23T01:55:25;99825.22;;;16.32;100.00
56671;BME280;42545;50.054;8.306;2023-05-23T01:57:54;99832.38;;;16.26;100.00
56671;BME280;42545;50.054;8.306;2023-05-23T02:00:21;99840.44;;;16.23;100.00
56671;BME280;42545;50.054;8.306;2023-05-23T02:02:50;99830.75;;;16.14;100.00
56671;BME280;42545;50.054;8.306;2023-05-23T02:05:16;99842.28;;;16.11;100.00
56671;BME280;42545;50.054;8.306;2023-05-23T02:07:43;99841.47;;;16.06;100.00
56671;BME280;42545;50.054;8.306;2023-05-23T02:10:10;99846.81;;;16.02;100.00
56671;BME280;42545;50.054;8.306;2023-05-23T02:12:36;99850.44;;;15.93;100.00
56671;BME280;42545;50.054;8.306;2023-05-23T02:15:04;99857.59;;;15.88;100.00
56671;BME280;42545;50.054;8.306;2023-05-23T02:17:36;99855.84;;;15.87;100.00
56671;BME280;42545;50.054;8.306;2023-05-23T02:20:05;99854.97;;;15.82;100.00
56671;BME280;42545;50.054;8.306;2023-05-23T02:22:32;99857.66;;;15.80;100.00
56671;BME280;42545;50.054;8.306;2023-05-23T02:24:59;99861.25;;;15.76;100.00
56671;BME280;42545;50.054;8.306;2023-05-23T02:27:25;99866.53;;;15.71;100.00
56671;BME280;42545;50.054;8.306;2023-05-23T02:29:52;99868.38;;;15.66;100.00
56671;BME280;42545;50.054;8.306;2023-05-23T02:32:18;99866.66;;;15.61;100.00
56671;BME280;42545;50.054;8.306;2023-05-23T02:34:45;99874.66;;;15.56;100.00
56671;BME280;42545;50.054;8.306;2023-05-23T02:37:15;99869.41;;;15.48;100.00
56671;BME280;42545;50.054;8.306;2023-05-23T02:39:42;99870.31;;;15.43;100.00
56671;BME280;42545;50.054;8.306;2023-05-23T02:42:09;99876.56;;;15.37;99.85
56671;BME280;42545;50.054;8.306;2023-05-23T02:44:35;99874.78;;;15.33;99.70
56671;BME280;42545;50.054;8.306;2023-05-23T02:47:02;99874.78;;;15.33;100.00
56671;BME280;42545;50.054;8.306;2023-05-23T02:49:28;99886.34;;;15.30;99.95
56671;BME280;42545;50.054;8.306;2023-05-23T02:51:55;99881.94;;;15.28;100.00
56671;BME280;42545;50.054;8.306;2023-05-23T02:54:23;99888.13;;;15.25;100.00
56671;BME280;42545;50.054;8.306;2023-05-23T02:56:49;99886.38;;;15.21;100.00
56671;BME280;42545;50.054;8.306;2023-05-23T02:59:19;99892.63;;;15.15;100.00
56671;BME280;42545;50.054;8.306;2023-05-23T03:01:46;99892.63;;;15.09;100.00
56671;BME280;42545;50.054;8.306;2023-05-23T03:04:12;99893.53;;;15.04;100.00
56671;BME280;42545;50.054;8.306;2023-05-23T03:06:39;99892.66;;;15.00;100.00
56671;BME280;42545;50.054;8.306;2023-05-23T03:09:06;99899.81;;;14.95;100.00
56671;BME280;42545;50.054;8.306;2023-05-23T03:11:34;99908.69;;;14.86;100.00
56671;BME280;42545;50.054;8.306;2023-05-23T03:14:01;99896.31;;;14.80;100.00
56671;BME280;42545;50.054;8.306;2023-05-23T03:16:28;99906.06;;;14.77;100.00
56671;BME280;42545;50.054;8.306;2023-05-23T03:18:54;99905.19;;;14.75;100.00
56671;BME280;42545;50.054;8.306;2023-05-23T03:21:21;99908.72;;;14.75;100.00
56671;BME280;42545;50.054;8.306;2023-05-23T03:23:47;99904.28;;;14.74;100.00
56671;BME280;42545;50.054;8.306;2023-05-23T03:26:14;99912.25;;;14.73;100.00
56671;BME280;42545;50.054;8.306;2023-05-23T03:28:42;99907.84;;;14.72;100.00
56671;BME280;42545;50.054;8.306;2023-05-23T03:31:09;99913.16;;;14.73;100.00
56671;BME280;42545;50.054;8.306;2023-05-23T03:33:35;99909.59;;;14.73;100.00
56671;BME280;42545;50.054;8.306;2023-05-23T03:36:02;99914.03;;;14.71;100.00
56671;BME280;42545;50.054;8.306;2023-05-23T03:38:29;99913.16;;;14.67;100.00
56671;BME280;42545;50.054;8.306;2023-05-23T03:40:55;99911.41;;;14.68;100.00
56671;BME280;42545;50.054;8.306;2023-05-23T03:43:22;99912.28;;;14.67;100.00
56671;BME280;42545;50.054;8.306;2023-05-23T03:45:50;99907.88;;;14.63;100.00
56671;BME280;42545;50.054;8.306;2023-05-23T03:48:17;99919.38;;;14.66;100.00
56671;BME280;42545;50.054;8.306;2023-05-23T03:50:43;99922.03;;;14.65;99.73
56671;BME280;42545;50.054;8.306;2023-05-23T03:53:10;99918.47;;;14.66;99.49
56671;BME280;42545;50.054;8.306;2023-05-23T03:55:37;99922.03;;;14.65;97.77
56671;BME280;42545;50.054;8.306;2023-05-23T03:58:04;99920.25;;;14.67;97.81
56671;BME280;42545;50.054;8.306;2023-05-23T04:00:31;99937.97;;;14.68;97.99
56671;BME280;42545;50.054;8.306;2023-05-23T04:02:59;99936.16;;;14.73;98.43
56671;BME280;42545;50.054;8.306;2023-05-23T04:05:25;99928.19;;;14.74;97.88
56671;BME280;42545;50.054;8.306;2023-05-23T04:07:52;99923.78;;;14.73;97.36
56671;BME280;42545;50.054;8.306;2023-05-23T04:10:18;99922.00;;;14.74;97.54
56671;BME280;42545;50.054;8.306;2023-05-23T04:12:45;99921.09;;;14.76;97.88
56671;BME280;42545;50.054;8.306;2023-05-23T04:15:13;99932.59;;;14.80;98.29
56671;BME280;42545;50.054;8.306;2023-05-23T04:17:39;99926.41;;;14.79;97.73
56671;BME280;42545;50.054;8.306;2023-05-23T04:20:09;99922.88;;;14.80;97.17
56671;BME280;42545;50.054;8.306;2023-05-23T04:22:37;99930.84;;;14.80;97.22
56671;BME280;42545;50.054;8.306;2023-05-23T04:25:04;99936.13;;;14.82;97.33
56671;BME280;42545;50.054;8.306;2023-05-23T04:27:31;99943.22;;;14.85;96.98
56671;BME280;42545;50.054;8.306;2023-05-23T04:29:58;99948.53;;;14.85;96.20
56671;BME280;42545;50.054;8.306;2023-05-23T04:32:25;99949.41;;;14.85;95.11
56671;BME280;42545;50.054;8.306;2023-05-23T04:34:52;99951.19;;;14.86;95.30
56671;BME280;42545;50.054;8.306;2023-05-23T04:37:22;99948.53;;;14.86;94.75
56671;BME280;42545;50.054;8.306;2023-05-23T04:39:50;99955.63;;;14.83;94.11
56671;BME280;42545;50.054;8.306;2023-05-23T04:42:17;99953.84;;;14.80;93.45
56671;BME280;42545;50.054;8.306;2023-05-23T04:44:49;99960.06;;;14.76;91.18
56671;BME280;42545;50.054;8.306;2023-05-23T04:47:15;99972.47;;;14.75;91.22
56671;BME280;42545;50.054;8.306;2023-05-23T04:49:43;99974.22;;;14.76;91.66
56671;BME280;42545;50.054;8.306;2023-05-23T04:52:09;99969.81;;;14.75;91.56
56671;BME280;42545;50.054;8.306;2023-05-23T04:54:37;99979.53;;;14.76;91.93
56671;BME280;42545;50.054;8.306;2023-05-23T04:57:04;99979.53;;;14.76;92.11
56671;BME280;42545;50.054;8.306;2023-05-23T04:59:31;99974.22;;;14.76;92.96
56671;BME280;42545;50.054;8.306;2023-05-23T05:01:58;99962.72;;;14.74;92.44
56671;BME280;42545;50.054;8.306;2023-05-23T05:04:24;99980.44;;;14.77;93.61
56671;BME280;42545;50.054;8.306;2023-05-23T05:06:51;99968.03;;;14.76;91.79
56671;BME280;42545;50.054;8.306;2023-05-23T05:09:17;99979.56;;;14.75;91.79
56671;BME280;42545;50.054;8.306;2023-05-23T05:11:47;99979.53;;;14.76;92.35
56671;BME280;42545;50.054;8.306;2023-05-23T05:14:14;99985.75;;;14.75;92.83
56671;BME280;42545;50.054;8.306;2023-05-23T05:16:40;99984.88;;;14.75;92.58
56671;BME280;42545;50.054;8.306;2023-05-23T05:19:07;99982.19;;;14.72;90.13
56671;BME280;42545;50.054;8.306;2023-05-23T05:21:34;99995.50;;;14.75;91.06
56671;BME280;42545;50.054;8.306;2023-05-23T05:24:01;99986.63;;;14.74;89.66
56671;BME280;42545;50.054;8.306;2023-05-23T05:26:27;99999.91;;;14.77;90.10
56671;BME280;42545;50.054;8.306;2023-05-23T05:28:56;100003.44;;;14.81;90.98
56671;BME280;42545;50.054;8.306;2023-05-23T05:31:23;100006.09;;;14.83;90.45
56671;BME280;42545;50.054;8.306;2023-05-23T05:33:49;100006.09;;;14.84;91.17
56671;BME280;42545;50.054;8.306;2023-05-23T05:36:18;100005.19;;;14.85;91.03
56671;BME280;42545;50.054;8.306;2023-05-23T05:38:45;100014.03;;;14.86;91.40
56671;BME280;42545;50.054;8.306;2023-05-23T05:41:12;100013.16;;;14.85;91.52
56671;BME280;42545;50.054;8.306;2023-05-23T05:43:38;100006.09;;;14.83;91.17
56671;BME280;42545;50.054;8.306;2023-05-23T05:46:07;100015.81;;;14.87;91.27
56671;BME280;42545;50.054;8.306;2023-05-23T05:48:33;100015.81;;;14.88;90.96
56671;BME280;42545;50.054;8.306;2023-05-23T05:51:00;100023.78;;;14.91;92.25
56671;BME280;42545;50.054;8.306;2023-05-23T05:53:27;100026.44;;;14.85;90.28
56671;BME280;42545;50.054;8.306;2023-05-23T05:55:54;100037.94;;;14.87;90.80
56671;BME280;42545;50.054;8.306;2023-05-23T05:58:20;100022.88;;;14.92;91.01
56671;BME280;42545;50.054;8.306;2023-05-23T06:00:47;100035.31;;;14.93;90.24
56671;BME280;42545;50.054;8.306;2023-05-23T06:03:15;100037.06;;;14.94;89.97
56671;BME280;42545;50.054;8.306;2023-05-23T06:05:42;100035.31;;;14.93;88.96
56671;BME280;42545;50.054;8.306;2023-05-23T06:08:08;100036.19;;;14.94;88.11
56671;BME280;42545;50.054;8.306;2023-05-23T06:10:36;100037.97;;;14.92;87.14
56671;BME280;42545;50.054;8.306;2023-05-23T06:13:03;100040.63;;;14.95;88.17
56671;BME280;42545;50.054;8.306;2023-05-23T06:15:29;100049.44;;;14.98;88.78
56671;BME280;42545;50.054;8.306;2023-05-23T06:17:56;100055.66;;;14.99;87.76
56671;BME280;42545;50.054;8.306;2023-05-23T06:20:24;100056.53;;;14.98;87.21
56671;BME280;42545;50.054;8.306;2023-05-23T06:22:50;100059.19;;;14.96;86.49
56671;BME280;42545;50.054;8.306;2023-05-23T06:25:17;100059.19;;;14.96;87.45
56671;BME280;42545;50.054;8.306;2023-05-23T06:27:43;100059.19;;;14.96;87.83
56671;BME280;42545;50.054;8.306;2023-05-23T06:30:11;100067.16;;;14.96;87.75
56671;BME280;42545;50.054;8.306;2023-05-23T06:32:39;100063.63;;;14.96;87.74
56671;BME280;42545;50.054;8.306;2023-05-23T06:35:06;100060.97;;;14.94;87.28
56671;BME280;42545;50.054;8.306;2023-05-23T06:37:34;100064.53;;;14.95;87.15
56671;BME280;42545;50.054;8.306;2023-05-23T06:40:00;100050.34;;;14.97;87.66
56671;BME280;42545;50.054;8.306;2023-05-23T06:42:28;100060.06;;;15.02;88.51
56671;BME280;42545;50.054;8.306;2023-05-23T06:44:54;100061.81;;;15.06;87.54
56671;BME280;42545;50.054;8.306;2023-05-23T06:47:21;100060.03;;;15.09;87.57
56671;BME280;42545;50.054;8.306;2023-05-23T06:49:48;100068.94;;;15.11;86.89
56671;BME280;42545;50.054;8.306;2023-05-23T06:52:15;100066.25;;;15.13;87.58
56671;BME280;42545;50.054;8.306;2023-05-23T06:54:43;100068.91;;;15.14;87.12
56671;BME280;42545;50.054;8.306;2023-05-23T06:57:09;100060.94;;;15.17;86.37
56671;BME280;42545;50.054;8.306;2023-05-23T06:59:36;100066.25;;;15.19;85.90
56671;BME280;42545;50.054;8.306;2023-05-23T07:02:03;100068.91;;;15.21;86.09
56671;BME280;42545;50.054;8.306;2023-05-23T07:04:30;100066.22;;;15.24;84.99
56671;BME280;42545;50.054;8.306;2023-05-23T07:06:56;100065.31;;;15.29;85.81
56671;BME280;42545;50.054;8.306;2023-05-23T07:09:23;100067.06;;;15.36;85.85
56671;BME280;42545;50.054;8.306;2023-05-23T07:11:51;100072.38;;;15.43;86.25
56671;BME280;42545;50.054;8.306;2023-05-23T07:14:18;100072.34;;;15.47;86.04
56671;BME280;42545;50.054;8.306;2023-05-23T07:16:45;100071.44;;;15.56;86.23
56671;BME280;42545;50.054;8.306;2023-05-23T07:19:12;100079.38;;;15.68;86.28
56671;BME280;42545;50.054;8.306;2023-05-23T07:21:38;100071.34;;;15.85;86.65
56671;BME280;42545;50.054;8.306;2023-05-23T07:24:05;100073.03;;;16.00;85.50
56671;BME280;42545;50.054;8.306;2023-05-23T07:26:31;100077.38;;;16.20;84.53
56671;BME280;42545;50.054;8.306;2023-05-23T07:28:59;100080.84;;;16.36;82.38
56671;BME280;42545;50.054;8.306;2023-05-23T07:31:26;100078.06;;;16.49;81.83
56671;BME280;42545;50.054;8.306;2023-05-23T07:33:53;100082.50;;;16.49;82.24
56671;BME280;42545;50.054;8.306;2023-05-23T07:36:19;100083.44;;;16.43;81.96
56671;BME280;42545;50.054;8.306;2023-05-23T07:38:46;100085.25;;;16.35;80.71
56671;BME280;42545;50.054;8.306;2023-05-23T07:41:13;100080.91;;;16.25;82.29
56671;BME280;42545;50.054;8.306;2023-05-23T07:43:39;100085.38;;;16.17;82.51
56671;BME280;42545;50.054;8.306;2023-05-23T07:46:07;100088.97;;;16.11;82.82
56671;BME280;42545;50.054;8.306;2023-05-23T07:48:34;100095.19;;;16.07;83.32
56671;BME280;42545;50.054;8.306;2023-05-23T07:51:01;100093.47;;;16.01;82.71
56671;BME280;42545;50.054;8.306;2023-05-23T07:53:28;100094.34;;;16.00;83.46
56671;BME280;42545;50.054;8.306;2023-05-23T07:55:54;100089.00;;;16.02;83.85
56671;BME280;42545;50.054;8.306;2023-05-23T07:58:21;100089.00;;;16.06;84.54
56671;BME280;42545;50.054;8.306;2023-05-23T08:00:49;100094.22;;;16.20;83.29
56671;BME280;42545;50.054;8.306;2023-05-23T08:03:16;100088.81;;;16.36;82.86
56671;BME280;42545;50.054;8.306;2023-05-23T08:05:43;100093.16;;;16.50;82.09
56671;BME280;42545;50.054;8.306;2023-05-23T08:08:10;100099.28;;;16.59;81.08
56671;BME280;42545;50.054;8.306;2023-05-23T08:10:36;100103.69;;;16.66;80.40
56671;BME280;42545;50.054;8.306;2023-05-23T08:13:04;100106.31;;;16.72;80.02
56671;BME280;42545;50.054;8.306;2023-05-23T08:15:31;100102.75;;;16.70;79.77
56671;BME280;42545;50.054;8.306;2023-05-23T08:17:57;100104.53;;;16.71;81.00
56671;BME280;42545;50.054;8.306;2023-05-23T08:20:26;100111.66;;;16.70;80.96
56671;BME280;42545;50.054;8.306;2023-05-23T08:22:57;100110.78;;;16.67;80.66
56671;BME280;42545;50.054;8.306;2023-05-23T08:25:23;100117.03;;;16.61;79.58
56671;BME280;42545;50.054;8.306;2023-05-23T08:27:50;100113.53;;;16.53;80.06
56671;BME280;42545;50.054;8.306;2023-05-23T08:30:17;100117.13;;;16.50;79.74
56671;BME280;42545;50.054;8.306;2023-05-23T08:32:47;100118.88;;;16.53;80.63
56671;BME280;42545;50.054;8.306;2023-05-23T08:35:14;100115.25;;;16.60;80.66
56671;BME280;42545;50.054;8.306;2023-05-23T08:37:42;100107.22;;;16.66;80.03
56671;BME280;42545;50.054;8.306;2023-05-23T08:40:13;100117.78;;;16.77;80.15
56671;BME280;42545;50.054;8.306;2023-05-23T08:42:39;100116.91;;;16.80;78.12
56671;BME280;42545;50.054;8.306;2023-05-23T08:45:07;100109.84;;;16.76;77.16
56671;BME280;42545;50.054;8.306;2023-05-23T08:47:36;100105.31;;;16.82;78.39
56671;BME280;42545;50.054;8.306;2023-05-23T08:50:04;100115.94;;;16.91;78.76
56671;BME280;42545;50.054;8.306;2023-05-23T08:52:32;100110.56;;;16.96;78.27
56671;BME280;42545;50.054;8.306;2023-05-23T08:55:02;100106.09;;;17.00;78.42
56671;BME280;42545;50.054;8.306;2023-05-23T08:57:30;100107.00;;;16.96;76.74
56671;BME280;42545;50.054;8.306;2023-05-23T08:59:58;100115.06;;;16.89;76.94
56671;BME280;42545;50.054;8.306;2023-05-23T09:02:25;100112.41;;;16.86;76.40
56671;BME280;42545;50.054;8.306;2023-05-23T09:04:52;100123.97;;;16.81;76.84
56671;BME280;42545;50.054;8.306;2023-05-23T09:07:18;100121.38;;;16.78;77.57
56671;BME280;42545;50.054;8.306;2023-05-23T09:09:45;100116.13;;;16.67;76.16
56671;BME280;42545;50.054;8.306;2023-05-23T09:12:14;100126.78;;;16.62;76.37
56671;BME280;42545;50.054;8.306;2023-05-23T09:14:41;100130.41;;;16.53;76.15
56671;BME280;42545;50.054;8.306;2023-05-23T09:17:10;100131.31;;;16.51;77.36
56671;BME280;42545;50.054;8.306;2023-05-23T09:19:41;100130.44;;;16.52;77.61
56671;BME280;42545;50.054;8.306;2023-05-23T09:22:08;100130.38;;;16.57;78.23
56671;BME280;42545;50.054;8.306;2023-05-23T09:24:35;100135.66;;;16.63;78.55
56671;BME280;42545;50.054;8.306;2023-05-23T09:27:04;100132.97;;;16.66;78.57
56671;BME280;42545;50.054;8.306;2023-05-23T09:29:36;100133.84;;;16.68;78.49
56671;BME280;42545;50.054;8.306;2023-05-23T09:32:09;100132.03;;;16.73;78.70
56671;BME280;42545;50.054;8.306;2023-05-23T09:34:39;100137.31;;;16.85;79.04
56671;BME280;42545;50.054;8.306;2023-05-23T09:37:06;100133.63;;;17.00;77.96
56671;BME280;42545;50.054;8.306;2023-05-23T09:39:36;100122.81;;;17.19;77.89
56671;BME280;42545;50.054;8.306;2023-05-23T09:42:03;100122.59;;;17.40;77.33
56671;BME280;42545;50.054;8.306;2023-05-23T09:44:30;100125.88;;;17.64;76.63
56671;BME280;42545;50.054;8.306;2023-05-23T09:46:57;100128.44;;;17.76;74.56
56671;BME280;42545;50.054;8.306;2023-05-23T09:49:25;100116.75;;;17.85;73.63
56671;BME280;42545;50.054;8.306;2023-05-23T09:51:58;100120.19;;;17.96;72.55
56671;BME280;42545;50.054;8.306;2023-05-23T09:54:25;100119.25;;;18.00;71.86
56671;BME280;42545;50.054;8.306;2023-05-23T09:56:52;100122.75;;;18.05;71.81
56671;BME280;42545;50.054;8.306;2023-05-23T09:59:22;100120.88;;;18.12;72.28
56671;BME280;42545;50.054;8.306;2023-05-23T10:01:50;100121.56;;;18.25;72.21
56671;BME280;42545;50.054;8.306;2023-05-23T10:04:20;100128.66;;;18.29;71.50
56671;BME280;42545;50.054;8.306;2023-05-23T10:06:49;100117.16;;;18.24;71.01
56671;BME280;42545;50.054;8.306;2023-05-23T10:09:20;100124.31;;;18.22;70.68
56671;BME280;42545;50.054;8.306;2023-05-23T10:12:35;100135.91;;;18.18;70.65
56671;BME280;42545;50.054;8.306;2023-05-23T10:15:06;100133.38;;;18.09;71.01
56671;BME280;42545;50.054;8.306;2023-05-23T10:17:40;100141.47;;;18.02;70.86
56671;BME280;42545;50.054;8.306;2023-05-23T10:20:10;100140.63;;;17.97;71.32
56671;BME280;42545;50.054;8.306;2023-05-23T10:22:38;100141.69;;;17.85;71.20
56671;BME280;42545;50.054;8.306;2023-05-23T10:25:05;100148.06;;;17.71;72.33
56671;BME280;42545;50.054;8.306;2023-05-23T10:27:32;100144.66;;;17.56;73.52
56671;BME280;42545;50.054;8.306;2023-05-23T10:30:00;100150.13;;;17.44;74.02
56671;BME280;42545;50.054;8.306;2023-05-23T10:32:28;100147.56;;;17.30;74.88
56671;BME280;42545;50.054;8.306;2023-05-23T10:34:59;100153.84;;;17.26;75.51
56671;BME280;42545;50.054;8.306;2023-05-23T10:37:32;100149.44;;;17.22;76.12
56671;BME280;42545;50.054;8.306;2023-05-23T10:40:04;100147.66;;;17.21;76.37
56671;BME280;42545;50.054;8.306;2023-05-23T10:42:41;100151.25;;;17.17;76.64
56671;BME280;42545;50.054;8.306;2023-05-23T10:45:16;100153.06;;;17.13;77.07
56671;BME280;42545;50.054;8.306;2023-05-23T10:47:43;100161.09;;;17.10;77.01
56671;BME280;42545;50.054;8.306;2023-05-23T10:50:16;100157.56;;;17.06;76.96
56671;BME280;42545;50.054;8.306;2023-05-23T10:52:58;100163.88;;;16.98;76.72
56671;BME280;42545;50.054;8.306;2023-05-23T10:55:25;100165.69;;;16.89;76.32
56671;BME280;42545;50.054;8.306;2023-05-23T10:58:10;100172.84;;;16.87;76.91
56671;BME280;42545;50.054;8.306;2023-05-23T11:00:37;100176.41;;;16.79;76.70
56671;BME280;42545;50.054;8.306;2023-05-23T11:03:05;100183.59;;;16.70;76.01
56671;BME280;42545;50.054;8.306;2023-05-23T11:05:33;100175.59;;;16.66;76.45
56671;BME280;42545;50.054;8.306;2023-05-23T11:08:09;100178.25;;;16.69;77.21
56671;BME280;42545;50.054;8.306;2023-05-23T11:10:52;100172.88;;;16.73;76.70
56671;BME280;42545;50.054;8.306;2023-05-23T11:13:19;100169.28;;;16.82;76.72
56671;BME280;42545;50.054;8.306;2023-05-23T11:15:47;100175.47;;;16.92;76.85
56671;BME280;42545;50.054;8.306;2023-05-23T11:18:22;100170.94;;;17.03;76.76
56671;BME280;42545;50.054;8.306;2023-05-23T11:20:53;100173.53;;;17.09;76.63
56671;BME280;42545;50.054;8.306;2023-05-23T11:23:22;100169.13;;;17.08;76.72
56671;BME280;42545;50.054;8.306;2023-05-23T11:25:51;100170.88;;;17.08;76.63
56671;BME280;42545;50.054;8.306;2023-05-23T11:28:19;100170.03;;;17.03;76.59
56671;BME280;42545;50.054;8.306;2023-05-23T11:30:49;100179.81;;;17.02;77.45
56671;BME280;42545;50.054;8.306;2023-05-23T11:33:16;100177.13;;;17.05;78.12
56671;BME280;42545;50.054;8.306;2023-05-23T11:35:46;100174.41;;;17.12;77.47
56671;BME280;42545;50.054;8.306;2023-05-23T11:38:13;100174.34;;;17.19;78.11
56671;BME280;42545;50.054;8.306;2023-05-23T11:40:43;100168.91;;;17.30;78.18
56671;BME280;42545;50.054;8.306;2023-05-23T11:43:12;100179.47;;;17.42;79.04
56671;BME280;42545;50.054;8.306;2023-05-23T11:45:39;100181.25;;;17.43;77.31
56671;BME280;42545;50.054;8.306;2023-05-23T11:48:07;100186.66;;;17.34;77.10
56671;BME280;42545;50.054;8.306;2023-05-23T11:50:43;100188.59;;;17.17;76.74
56671;BME280;42545;50.054;8.306;2023-05-23T11:53:10;100197.66;;;16.94;76.63
56671;BME280;42545;50.054;8.306;2023-05-23T11:55:38;100199.50;;;16.78;77.65
56671;BME280;42545;50.054;8.306;2023-05-23T11:58:08;100200.50;;;16.65;78.15
56671;BME280;42545;50.054;8.306;2023-05-23T12:00:42;100199.63;;;16.61;79.10
56671;BME280;42545;50.054;8.306;2023-05-23T12:03:08;100198.72;;;16.62;79.52
56671;BME280;42545;50.054;8.306;2023-05-23T12:05:35;100194.25;;;16.70;80.09
56671;BME280;42545;50.054;8.306;2023-05-23T12:08:02;100193.31;;;16.73;79.15
56671;BME280;42545;50.054;8.306;2023-05-23T12:10:29;100197.72;;;16.80;78.75
56671;BME280;42545;50.054;8.306;2023-05-23T12:12:55;100188.81;;;16.89;77.23
56671;BME280;42545;50.054;8.306;2023-05-23T12:15:25;100194.00;;;17.09;78.14
56671;BME280;42545;50.054;8.306;2023-05-23T12:17:53;100185.84;;;17.23;76.73
56671;BME280;42545;50.054;8.306;2023-05-23T12:20:20;100196.38;;;17.41;76.48
56671;BME280;42545;50.054;8.306;2023-05-23T12:22:47;100184.69;;;17.55;74.94
56671;BME280;42545;50.054;8.306;2023-05-23T12:25:13;100188.03;;;17.72;73.75
56671;BME280;42545;50.054;8.306;2023-05-23T12:27:40;100183.47;;;17.86;74.00
56671;BME280;42545;50.054;8.306;2023-05-23T12:30:09;100187.78;;;18.00;72.25
56671;BME280;42545;50.054;8.306;2023-05-23T12:32:40;100183.22;;;18.08;71.46
56671;BME280;42545;50.054;8.306;2023-05-23T12:35:08;100186.72;;;18.13;70.52
56671;BME280;42545;50.054;8.306;2023-05-23T12:37:38;100182.28;;;18.12;70.92
56671;BME280;42545;50.054;8.306;2023-05-23T12:40:09;100178.66;;;18.18;69.63
56671;BME280;42545;50.054;8.306;2023-05-23T12:42:43;100180.41;;;18.20;67.78
56671;BME280;42545;50.054;8.306;2023-05-23T12:45:13;100178.50;;;18.29;69.24
56671;BME280;42545;50.054;8.306;2023-05-23T12:47:41;100180.13;;;18.42;69.36
56671;BME280;42545;50.054;8.306;2023-05-23T12:50:08;100175.53;;;18.52;68.98
56671;BME280;42545;50.054;8.306;2023-05-23T12:52:35;100186.06;;;18.62;69.01
56671;BME280;42545;50.054;8.306;2023-05-23T12:55:02;100176.22;;;18.66;68.09